Time;durP1;ratioP1;P1;durP2;ratioP2;P2;SDS_P1;SDS_P2;PMS_P1;PMS_P2;Temp;Humidity;BMP_temperature;BMP_pressure;BME280_temperature;BME280_humidity;BME280_pressure;Samples;Min_cycle;Max_cycle;Signal;HPM_P1;HPM_P2
2021/03/18 00:04:11;;;;;;;12.38;6.10;;;1.00;93.00;;;;;;4864592;29;20088;-86
2021/03/18 00:10:00;;;;;;;20.25;7.25;;;0.90;93.00;;;;;;4864200;29;20573;-83
2021/03/18 00:15:49;;;;;;;12.95;6.22;;;0.90;93.00;;;;;;4864309;29;20037;-83
2021/03/18 00:21:38;;;;;;;14.82;5.82;;;0.80;92.90;;;;;;4863959;29;20073;-83
2021/03/18 00:27:25;;;;;;;16.45;6.63;;;0.60;92.80;;;;;;4863990;29;20114;-83
2021/03/18 00:33:15;;;;;;;15.55;6.75;;;0.50;92.70;;;;;;4864105;29;20041;-83
2021/03/18 00:39:08;;;;;;;12.85;6.07;;;0.40;92.70;;;;;;4863498;29;20074;-83
2021/03/18 00:44:57;;;;;;;12.30;5.38;;;0.40;92.90;;;;;;4863464;29;20494;-83
2021/03/18 00:50:51;;;;;;;15.15;6.13;;;0.30;92.80;;;;;;4863250;29;20056;-83
2021/03/18 01:00:55;;;;;;;13.55;5.43;;;0.20;92.50;;;;;;4863336;29;20090;-84
2021/03/18 01:06:44;;;;;;;13.52;5.60;;;0.00;92.50;;;;;;4864245;29;20455;-84
2021/03/18 01:12:32;;;;;;;12.68;5.82;;;-0.20;92.40;;;;;;4863499;29;20049;-84
2021/03/18 01:18:25;;;;;;;13.50;5.30;;;-0.30;92.50;;;;;;4862827;29;20044;-83
2021/03/18 01:24:14;;;;;;;12.45;5.70;;;-0.40;92.50;;;;;;4863025;29;20028;-83
2021/03/18 01:30:05;;;;;;;13.48;5.30;;;-0.60;92.40;;;;;;4862957;29;20531;-83
2021/03/18 01:35:55;;;;;;;11.75;5.32;;;-0.70;92.40;;;;;;4862908;29;20058;-83
2021/03/18 01:41:43;;;;;;;12.45;5.22;;;-0.80;92.40;;;;;;4862811;29;20120;-84
2021/03/18 01:47:32;;;;;;;15.18;5.28;;;-0.80;92.50;;;;;;4862537;29;20037;-84
2021/03/18 01:53:22;;;;;;;14.50;6.45;;;-0.80;92.70;;;;;;4862975;29;20035;-83
2021/03/18 02:03:11;;;;;;;14.00;5.68;;;-0.80;92.60;;;;;;4862646;29;20040;-83
2021/03/18 02:09:00;;;;;;;17.30;6.68;;;-0.90;92.60;;;;;;4862467;29;20041;-83
2021/03/18 02:14:48;;;;;;;15.15;6.18;;;-0.90;92.70;;;;;;4862063;29;20033;-83
2021/03/18 02:21:12;;;;;;;17.83;7.15;;;-0.90;92.80;;;;;;4862266;29;20090;-83
2021/03/18 02:27:16;;;;;;;19.90;6.90;;;-0.90;92.90;;;;;;4862062;29;20514;-83
2021/03/18 02:33:16;;;;;;;20.20;7.70;;;-0.80;92.80;;;;;;4862089;29;20037;-85
2021/03/18 02:39:09;;;;;;;13.90;6.45;;;-0.80;92.80;;;;;;4861550;29;20052;-84
2021/03/18 02:45:02;;;;;;;14.73;7.13;;;-0.90;92.80;;;;;;4861873;29;20395;-85
2021/03/18 02:50:53;;;;;;;17.13;6.45;;;-0.90;92.70;;;;;;4861862;29;20029;-85
2021/03/18 02:56:46;;;;;;;15.48;6.30;;;-1.00;92.70;;;;;;4861698;29;20056;-83
2021/03/18 02:59:19;;;;;;;15.02;7.60;;;-1.00;92.60;;;;;;4835372;29;20133;-83
2021/03/18 03:05:08;;;;;;;14.82;7.03;;;-1.00;93.00;;;;;;4843028;29;20073;-84
2021/03/18 03:11:00;;;;;;;20.83;8.88;;;-0.70;93.30;;;;;;4843059;29;20105;-83
2021/03/18 03:16:49;;;;;;;17.30;7.70;;;-0.50;93.30;;;;;;4846767;29;20049;-85
2021/03/18 03:22:38;;;;;;;19.45;7.45;;;-0.50;93.00;;;;;;4846575;29;20029;-83
2021/03/18 03:28:28;;;;;;;16.20;6.97;;;-0.50;92.80;;;;;;4847158;29;20033;-83
2021/03/18 03:34:17;;;;;;;14.23;6.72;;;-0.70;92.60;;;;;;4846720;29;20041;-84
2021/03/18 03:40:08;;;;;;;13.30;6.93;;;-0.80;92.70;;;;;;4846256;29;20529;-84
2021/03/18 03:45:57;;;;;;;15.93;6.78;;;-0.90;92.60;;;;;;4847068;29;20086;-84
2021/03/18 03:52:02;;;;;;;25.05;9.52;;;-1.00;92.60;;;;;;4846412;29;20093;-84
2021/03/18 03:58:26;;;;;;;18.60;7.68;;;-1.00;92.70;;;;;;4846327;29;20555;-84
2021/03/18 04:04:45;;;;;;;17.08;6.88;;;-1.10;92.60;;;;;;4845835;29;20104;-84
2021/03/18 04:10:35;;;;;;;14.05;6.65;;;-1.20;92.50;;;;;;4846028;29;20045;-84
2021/03/18 04:16:24;;;;;;;16.35;7.30;;;-1.30;92.70;;;;;;4845578;29;20133;-84
2021/03/18 04:22:12;;;;;;;17.23;6.60;;;-1.10;92.90;;;;;;4845813;29;20037;-84
2021/03/18 04:28:01;;;;;;;13.20;6.70;;;-1.10;92.90;;;;;;4845666;29;20058;-83
2021/03/18 04:33:50;;;;;;;14.93;7.18;;;-1.00;93.10;;;;;;4845351;29;20067;-84
2021/03/18 04:39:40;;;;;;;15.82;7.07;;;-0.80;93.10;;;;;;4845295;29;20057;-84
2021/03/18 04:45:30;;;;;;;15.57;6.88;;;-0.80;93.10;;;;;;4845455;29;20033;-84
2021/03/18 04:51:19;;;;;;;18.98;8.10;;;-0.60;93.10;;;;;;4845135;29;20121;-84
2021/03/18 04:57:09;;;;;;;16.65;7.30;;;-0.60;93.10;;;;;;4844873;29;20041;-84
2021/03/18 05:03:03;;;;;;;20.20;6.72;;;-0.60;93.00;;;;;;4863232;29;20041;-84
2021/03/18 05:08:53;;;;;;;18.70;8.95;;;-0.60;92.80;;;;;;4863378;29;20070;-83
2021/03/18 05:14:41;;;;;;;15.80;7.70;;;-0.70;92.80;;;;;;4863046;29;20498;-84
2021/03/18 05:20:32;;;;;;;15.35;6.97;;;-0.70;93.00;;;;;;4863056;29;20033;-84
2021/03/18 05:26:20;;;;;;;18.83;7.20;;;-0.60;93.20;;;;;;4862854;29;20044;-83
2021/03/18 05:32:09;;;;;;;18.67;7.90;;;-0.40;93.30;;;;;;4862533;29;20083;-84
2021/03/18 05:37:58;;;;;;;17.42;7.25;;;-0.30;93.40;;;;;;4862269;29;20044;-84
2021/03/18 05:43:48;;;;;;;15.40;7.90;;;-0.10;93.40;;;;;;4862944;29;20037;-83
2021/03/18 05:49:37;;;;;;;19.92;9.75;;;0.10;93.80;;;;;;4862420;29;20036;-82
2021/03/18 05:55:26;;;;;;;20.25;9.10;;;0.30;93.50;;;;;;4867589;29;20032;-84
2021/03/18 06:05:15;;;;;;;17.17;8.25;;;0.50;93.40;;;;;;4862596;29;20045;-84
2021/03/18 06:11:08;;;;;;;18.48;8.55;;;0.50;93.30;;;;;;4861809;29;20032;-85
2021/03/18 06:16:57;;;;;;;19.70;9.00;;;0.60;93.40;;;;;;4862598;29;20036;-88
2021/03/18 06:22:48;;;;;;;19.88;9.40;;;0.90;93.80;;;;;;4862148;29;20036;-83
2021/03/18 06:28:36;;;;;;;19.33;9.57;;;1.30;93.90;;;;;;4861950;29;20031;-85
2021/03/18 06:34:44;;;;;;;19.30;9.18;;;1.60;93.80;;;;;;4862036;29;20032;-86
2021/03/18 06:40:46;;;;;;;18.17;8.95;;;1.70;93.60;;;;;;4861344;29;20040;-86
2021/03/18 06:46:42;;;;;;;19.88;9.20;;;1.90;93.60;;;;;;4861560;29;20109;-82
2021/03/18 06:52:37;;;;;;;17.45;7.68;;;2.10;93.70;;;;;;4861248;29;20082;-82
2021/03/18 06:58:29;;;;;;;20.90;9.60;;;2.20;93.70;;;;;;4860973;29;20109;-84
2021/03/18 07:08:40;;;;;;;17.67;8.05;;;2.70;93.90;;;;;;4861183;29;20093;-82
2021/03/18 07:14:38;;;;;;;19.42;6.85;;;2.80;93.70;;;;;;4860885;29;20074;-82
2021/03/18 07:20:26;;;;;;;17.85;7.93;;;3.00;93.50;;;;;;4860992;29;20133;-83
2021/03/18 07:26:22;;;;;;;16.60;7.10;;;3.10;93.80;;;;;;4860949;29;20032;-82
2021/03/18 07:32:14;;;;;;;12.98;6.55;;;3.30;93.50;;;;;;4860804;29;20032;-82
2021/03/18 07:38:04;;;;;;;15.05;7.43;;;3.30;93.10;;;;;;4860914;29;20040;-81
2021/03/18 07:43:53;;;;;;;21.67;8.07;;;3.20;93.40;;;;;;4861250;29;20451;-82
2021/03/18 07:49:45;;;;;;;16.50;7.10;;;3.50;93.70;;;;;;4860935;29;20037;-81
2021/03/18 07:55:34;;;;;;;16.10;7.43;;;3.90;94.10;;;;;;4860735;29;20029;-84
2021/03/18 08:01:32;;;;;;;15.48;7.63;;;4.30;94.10;;;;;;4864249;29;20040;-91
2021/03/18 08:11:34;;;;;;;17.38;7.43;;;4.80;93.60;;;;;;4864083;29;20059;-83
2021/03/18 08:17:29;;;;;;;14.52;6.97;;;5.10;93.80;;;;;;4863717;29;20074;-82
2021/03/18 08:23:24;;;;;;;18.58;7.95;;;5.40;93.60;;;;;;4864127;29;20033;-81
2021/03/18 08:29:37;;;;;;;17.15;7.03;;;5.60;93.80;;;;;;4863444;29;20036;-79
2021/03/18 08:35:28;;;;;;;14.27;6.63;;;6.10;93.90;;;;;;4863653;29;20040;-80
2021/03/18 08:41:30;;;;;;;13.93;6.82;;;6.50;94.10;;;;;;4863478;29;20486;-84
2021/03/18 08:47:19;;;;;;;11.20;5.78;;;6.70;93.50;;;;;;4863284;29;20085;-83
2021/03/18 08:53:35;;;;;;;12.77;5.75;;;6.90;93.90;;;;;;4862917;29;20029;-82
2021/03/18 08:59:23;;;;;;;11.43;5.70;;;7.30;93.80;;;;;;4862929;29;20080;-83
2021/03/18 09:05:16;;;;;;;10.73;5.25;;;7.50;93.80;;;;;;4863181;29;20090;-83
2021/03/18 09:11:07;;;;;;;11.70;5.13;;;7.60;93.30;;;;;;4861777;29;20510;-83
2021/03/18 09:17:12;;;;;;;10.98;4.60;;;7.50;93.20;;;;;;4862804;29;20459;-86
2021/03/18 09:23:23;;;;;;;11.05;4.80;;;7.40;93.10;;;;;;4866938;29;20120;-92
2021/03/18 09:29:11;;;;;;;10.73;4.85;;;7.40;93.30;;;;;;4863093;29;20086;-82
2021/03/18 09:34:59;;;;;;;10.40;4.15;;;7.60;93.40;;;;;;4862673;29;20040;-83
2021/03/18 09:40:49;;;;;;;9.35;4.28;;;7.70;93.40;;;;;;4862450;29;20036;-83
2021/03/18 09:46:41;;;;;;;9.43;4.20;;;8.00;93.70;;;;;;4862504;29;20083;-81
2021/03/18 09:52:29;;;;;;;10.45;4.43;;;8.70;94.30;;;;;;4862462;29;20112;-83
2021/03/18 09:58:19;;;;;;;9.00;4.18;;;9.20;94.30;;;;;;4862210;29;20109;-83
2021/03/18 10:04:11;;;;;;;8.55;4.10;;;9.60;93.70;;;;;;4862168;29;20033;-84
2021/03/18 10:14:00;;;;;;;9.13;3.97;;;9.50;92.60;;;;;;4861878;29;20180;-84
2021/03/18 10:19:51;;;;;;;8.48;3.70;;;9.70;93.70;;;;;;4861682;29;20048;-83
2021/03/18 10:25:40;;;;;;;9.90;3.67;;;10.20;94.40;;;;;;4861623;29;20033;-82
2021/03/18 10:31:30;;;;;;;12.57;4.85;;;10.50;92.80;;;;;;4861777;29;20086;-81
2021/03/18 10:37:31;;;;;;;8.85;3.75;;;10.10;92.40;;;;;;4861631;29;20161;-81
2021/03/18 10:43:25;;;;;;;8.38;3.70;;;10.30;94.30;;;;;;4861644;29;20379;-80
2021/03/18 10:49:15;;;;;;;8.68;3.10;;;11.70;94.60;;;;;;4862297;29;20169;-84
2021/03/18 10:55:03;;;;;;;8.70;4.10;;;11.50;91.60;;;;;;4861790;29;20072;-83
2021/03/18 11:01:04;;;;;;;6.88;3.42;;;11.10;93.70;;;;;;4861428;29;20166;-83
2021/03/18 11:06:53;;;;;;;7.22;3.55;;;12.90;96.00;;;;;;4861415;29;20037;-84
2021/03/18 11:12:36;;;;;;;6.43;2.97;;;14.10;94.20;;;;;;4859980;29;20521;-82
2021/03/18 11:18:43;;;;;;;6.60;3.17;;;13.50;90.70;;;;;;4861213;29;20574;-82
2021/03/18 11:24:14;;;;;;;6.88;3.13;;;12.50;91.40;;;;;;4861795;29;19915;-83
2021/03/18 11:30:06;;;;;;;8.55;4.00;;;11.90;91.20;;;;;;4861495;29;20173;-81
2021/03/18 11:35:54;;;;;;;9.63;4.75;;;11.30;91.40;;;;;;4864261;29;20481;-86
2021/03/18 11:41:42;;;;;;;7.90;3.40;;;10.60;91.70;;;;;;4865199;29;20029;-85
2021/03/18 11:47:31;;;;;;;8.30;3.40;;;10.90;92.80;;;;;;4864929;29;20036;-85
2021/03/18 11:53:20;;;;;;;7.72;3.53;;;10.60;91.90;;;;;;4864426;29;20082;-83
2021/03/18 11:59:09;;;;;;;8.80;3.80;;;10.50;92.80;;;;;;4864215;29;20048;-83
2021/03/18 12:04:57;;;;;;;8.43;3.63;;;10.60;93.00;;;;;;4864010;29;20049;-84
2021/03/18 12:10:46;;;;;;;8.00;3.38;;;10.70;92.70;;;;;;4864161;29;20105;-84
2021/03/18 12:16:37;;;;;;;8.75;3.42;;;10.50;92.50;;;;;;4845410;29;20032;-83
2021/03/18 12:22:25;;;;;;;6.18;2.67;;;10.70;93.30;;;;;;4845533;29;20033;-83
2021/03/18 12:28:14;;;;;;;6.35;2.83;;;11.00;93.20;;;;;;4845398;29;20068;-85
2021/03/18 12:34:03;;;;;;;7.38;3.00;;;11.10;92.30;;;;;;4845263;29;20037;-83
2021/03/18 12:39:52;;;;;;;8.32;3.10;;;11.10;92.90;;;;;;4845001;29;20072;-84
2021/03/18 12:45:42;;;;;;;7.95;3.63;;;11.20;92.60;;;;;;4844700;29;20444;-84
2021/03/18 12:51:31;;;;;;;6.97;3.13;;;11.30;92.90;;;;;;4844983;29;20087;-84
2021/03/18 12:57:20;;;;;;;10.57;3.30;;;11.50;92.90;;;;;;4844568;29;20081;-83
2021/03/18 13:03:09;;;;;;;7.43;2.90;;;11.50;92.30;;;;;;4845314;29;20133;-82
2021/03/18 13:08:59;;;;;;;8.18;3.38;;;11.00;91.90;;;;;;4844733;29;20037;-84
2021/03/18 13:18:42;;;;;;;8.07;3.53;;;10.00;91.80;;;;;;4863151;29;20064;-82
2021/03/18 13:24:30;;;;;;;8.90;3.72;;;9.70;92.10;;;;;;4863261;29;20031;-85
2021/03/18 13:30:22;;;;;;;9.02;3.97;;;9.80;92.60;;;;;;4863364;29;20036;-84
2021/03/18 13:36:11;;;;;;;9.60;3.83;;;9.80;92.30;;;;;;4862625;29;20109;-83
2021/03/18 13:42:00;;;;;;;8.95;4.10;;;10.00;93.00;;;;;;4862553;29;20037;-79
2021/03/18 13:47:48;;;;;;;7.32;3.63;;;10.30;92.90;;;;;;4862620;29;20081;-80
2021/03/18 13:53:37;;;;;;;9.15;3.75;;;10.70;93.00;;;;;;4862594;29;20056;-84
2021/03/18 13:59:25;;;;;;;7.80;3.42;;;11.40;94.40;;;;;;4862370;29;20109;-82
2021/03/18 14:05:14;;;;;;;8.10;3.72;;;13.00;96.10;;;;;;4862397;29;20036;-82
2021/03/18 14:11:02;;;;;;;7.70;3.47;;;13.20;91.80;;;;;;4862255;29;20047;-81
2021/03/18 14:20:47;;;;;;;8.38;3.28;;;12.20;91.00;;;;;;4862283;29;20121;-80
2021/03/18 14:26:36;;;;;;;8.18;3.17;;;13.30;95.50;;;;;;4862894;29;20055;-82
2021/03/18 14:32:26;;;;;;;8.07;3.72;;;15.30;94.90;;;;;;4862489;29;20142;-82
2021/03/18 14:38:14;;;;;;;6.75;3.20;;;14.90;92.00;;;;;;4861599;29;20040;-80
2021/03/18 14:44:04;;;;;;;6.63;3.03;;;14.60;90.90;;;;;;4861725;29;20070;-82
2021/03/18 14:49:52;;;;;;;8.05;3.65;;;13.90;90.60;;;;;;4862322;29;20500;-85
2021/03/18 14:55:42;;;;;;;6.85;3.25;;;12.90;90.50;;;;;;4861478;29;20072;-82
2021/03/18 15:01:31;;;;;;;6.32;3.13;;;13.00;93.80;;;;;;4861335;29;20458;-83
2021/03/18 15:07:19;;;;;;;8.15;3.83;;;14.70;93.70;;;;;;4862353;29;20032;-82
2021/03/18 15:13:08;;;;;;;8.45;3.22;;;15.60;93.00;;;;;;4865524;29;20043;-83
2021/03/18 15:22:53;;;;;;;14.50;7.60;;;16.90;92.10;;;;;;4865311;29;20443;-81
2021/03/18 15:28:42;;;;;;;5.70;2.70;;;16.90;91.90;;;;;;4864916;29;20125;-81
2021/03/18 15:34:31;;;;;;;9.80;4.20;;;17.50;92.30;;;;;;4864734;29;20056;-81
2021/03/18 15:40:22;;;;;;;8.57;3.88;;;17.70;90.00;;;;;;4864485;29;20064;-81
2021/03/18 15:46:11;;;;;;;4.57;2.38;;;16.90;89.80;;;;;;4864452;29;20051;-82
2021/03/18 15:51:59;;;;;;;6.80;3.20;;;16.40;90.50;;;;;;4864321;29;20036;-83
2021/03/18 15:57:48;;;;;;;6.47;3.00;;;15.00;86.90;;;;;;4864152;29;20074;-82
2021/03/18 16:03:37;;;;;;;10.07;5.18;;;13.20;87.20;;;;;;4864091;29;20044;-83
2021/03/18 16:09:25;;;;;;;7.30;3.35;;;12.50;90.90;;;;;;4863863;29;20049;-83
2021/03/18 16:15:15;;;;;;;7.43;3.20;;;13.20;92.40;;;;;;4863914;29;20062;-83
2021/03/18 16:24:57;;;;;;;4.15;1.92;;;12.30;90.00;;;;;;4863779;29;20390;-82
2021/03/18 16:30:45;;;;;;;5.22;2.30;;;12.30;91.60;;;;;;4863861;29;20089;-83
2021/03/18 16:37:00;;;;;;;9.55;2.83;;;11.80;90.50;;;;;;4863518;29;20139;-83
2021/03/18 16:42:48;;;;;;;7.28;3.25;;;11.50;90.90;;;;;;4863718;29;20060;-86
2021/03/18 16:48:41;;;;;;;7.47;3.30;;;10.90;90.80;;;;;;4863377;29;20484;-83
2021/03/18 16:54:29;;;;;;;7.55;3.00;;;10.30;90.80;;;;;;4865728;29;20076;-88
2021/03/18 17:00:25;;;;;;;9.05;3.63;;;9.60;90.90;;;;;;4863438;29;20402;-84
2021/03/18 17:06:13;;;;;;;9.90;3.78;;;9.20;91.30;;;;;;4863012;29;20189;-83
2021/03/18 17:12:03;;;;;;;7.18;3.42;;;8.90;91.40;;;;;;4863381;29;20041;-83
2021/03/18 17:17:52;;;;;;;8.52;3.92;;;8.40;91.30;;;;;;4862537;29;20058;-78
2021/03/18 17:27:42;;;;;;;7.50;3.45;;;7.80;91.80;;;;;;4863052;29;20117;-81
2021/03/18 17:33:30;;;;;;;9.10;4.32;;;7.50;91.40;;;;;;4861836;29;20093;-80
2021/03/18 17:39:18;;;;;;;9.18;3.90;;;6.90;91.60;;;;;;4862042;29;20094;-80
2021/03/18 17:45:08;;;;;;;10.30;4.70;;;6.50;91.70;;;;;;4862139;29;20033;-80
2021/03/18 17:50:59;;;;;;;10.25;4.07;;;6.30;92.10;;;;;;4862014;29;20136;-80
2021/03/18 17:57:16;;;;;;;10.00;4.35;;;6.20;92.30;;;;;;5131807;28;20080;-79
2021/03/18 18:03:04;;;;;;;11.63;4.95;;;6.10;92.40;;;;;;5131742;28;20435;-80
2021/03/18 18:08:53;;;;;;;9.95;4.40;;;5.90;92.40;;;;;;5131794;28;20172;-79
2021/03/18 18:14:42;;;;;;;17.20;8.38;;;5.70;92.10;;;;;;5131691;28;20383;-80
2021/03/18 18:20:33;;;;;;;7.50;3.22;;;5.50;92.30;;;;;;5131810;28;20042;-79
2021/03/18 18:26:21;;;;;;;9.73;4.07;;;5.40;92.40;;;;;;5131609;28;20387;-79
2021/03/18 18:32:10;;;;;;;9.38;3.90;;;5.30;92.50;;;;;;5131072;28;20084;-79
2021/03/18 18:37:59;;;;;;;9.07;4.00;;;5.20;92.50;;;;;;5131177;28;20030;-79
2021/03/18 18:43:48;;;;;;;9.18;3.92;;;5.10;92.70;;;;;;5131086;28;20049;-79
2021/03/18 18:49:37;;;;;;;6.45;2.78;;;5.00;92.50;;;;;;5130974;28;20034;-80
2021/03/18 18:59:24;;;;;;;11.10;4.65;;;4.80;92.40;;;;;;5131017;28;20041;-80
2021/03/18 19:05:14;;;;;;;9.93;4.60;;;4.70;92.60;;;;;;5116640;28;20076;-78
2021/03/18 19:11:03;;;;;;;9.52;4.20;;;4.60;92.80;;;;;;5117061;28;20232;-78
2021/03/18 19:16:51;;;;;;;10.70;4.85;;;4.60;92.80;;;;;;5117193;28;20084;-80
2021/03/18 19:22:42;;;;;;;9.57;4.13;;;4.60;92.80;;;;;;5116611;28;20069;-81
2021/03/18 19:28:31;;;;;;;8.77;3.92;;;4.50;92.90;;;;;;5116518;28;20383;-80
2021/03/18 19:34:21;;;;;;;9.05;4.10;;;4.60;93.10;;;;;;5116357;28;20085;-80
2021/03/18 19:40:14;;;;;;;9.15;3.60;;;4.50;92.80;;;;;;5116284;28;20068;-80
2021/03/18 19:46:03;;;;;;;9.73;4.45;;;4.40;92.80;;;;;;5116644;28;20081;-83
2021/03/18 19:51:52;;;;;;;10.00;4.25;;;4.50;93.00;;;;;;5116074;28;20054;-81
2021/03/18 20:01:34;;;;;;;10.50;4.60;;;4.50;93.10;;;;;;5116246;28;20146;-86
2021/03/18 20:07:25;;;;;;;14.82;5.32;;;4.50;93.10;;;;;;5116093;28;20026;-82
2021/03/18 20:13:14;;;;;;;10.20;4.03;;;4.50;93.10;;;;;;5115630;28;20051;-84
2021/03/18 20:19:06;;;;;;;14.52;5.35;;;4.50;93.10;;;;;;5115555;28;20031;-83
2021/03/18 20:25:10;;;;;;;11.40;3.97;;;4.50;93.10;;;;;;5115416;28;20079;-84
2021/03/18 20:30:59;;;;;;;9.00;3.85;;;4.60;93.30;;;;;;5115759;28;20028;-88
2021/03/18 20:36:47;;;;;;;12.75;4.72;;;4.60;93.10;;;;;;5115274;28;20038;-84
2021/03/18 20:42:36;;;;;;;8.52;3.65;;;4.50;93.00;;;;;;5115571;28;20590;-84
2021/03/18 20:48:25;;;;;;;10.85;4.18;;;4.40;93.00;;;;;;5115708;28;20038;-84
2021/03/18 20:54:14;;;;;;;13.50;4.60;;;4.50;93.20;;;;;;5115319;28;20084;-79
2021/03/18 21:04:05;;;;;;;11.45;4.68;;;4.50;93.20;;;;;;5115144;28;20054;-82
2021/03/18 21:09:53;;;;;;;10.43;4.35;;;4.50;93.30;;;;;;5115020;28;20085;-81
2021/03/18 21:15:41;;;;;;;10.88;4.35;;;4.50;93.00;;;;;;5114940;28;20096;-80
2021/03/18 21:21:30;;;;;;;11.50;5.30;;;4.50;93.20;;;;;;5114981;28;20123;-81
2021/03/18 21:27:21;;;;;;;8.73;3.85;;;4.40;93.00;;;;;;5114554;28;20585;-81
2021/03/18 21:33:10;;;;;;;11.43;4.70;;;4.40;93.20;;;;;;5114260;28;20586;-81
2021/03/18 21:38:59;;;;;;;9.73;4.03;;;4.30;93.00;;;;;;5114709;28;20030;-80
2021/03/18 21:44:49;;;;;;;10.40;4.75;;;4.30;93.10;;;;;;5114568;28;20039;-81
2021/03/18 21:50:42;;;;;;;11.30;4.75;;;4.20;93.00;;;;;;5114215;28;20145;-81
2021/03/18 21:56:31;;;;;;;11.45;4.30;;;4.20;93.10;;;;;;5114153;28;20068;-80
2021/03/18 22:06:20;;;;;;;9.23;4.32;;;4.20;93.10;;;;;;5114678;28;20083;-80
2021/03/18 22:12:09;;;;;;;9.68;4.40;;;4.20;93.10;;;;;;5114164;28;20215;-80
2021/03/18 22:17:57;;;;;;;9.15;4.10;;;4.10;93.10;;;;;;5114551;28;20110;-80
2021/03/18 22:23:46;;;;;;;9.50;4.13;;;4.10;93.20;;;;;;5114361;28;20034;-80
2021/03/18 22:29:34;;;;;;;10.23;4.80;;;4.10;93.20;;;;;;5114074;28;20070;-80
2021/03/18 22:35:24;;;;;;;9.98;4.70;;;4.10;93.10;;;;;;5114224;28;20085;-79
2021/03/18 22:41:13;;;;;;;10.20;4.80;;;4.10;93.20;;;;;;5117995;28;20026;-79
2021/03/18 22:47:02;;;;;;;9.07;4.13;;;4.10;93.20;;;;;;5118071;28;20054;-79
2021/03/18 22:52:51;;;;;;;8.90;4.28;;;4.10;93.20;;;;;;5117530;28;20088;-79
2021/03/18 22:58:40;;;;;;;9.13;4.25;;;4.20;93.20;;;;;;5118344;28;20043;-79
2021/03/18 23:08:22;;;;;;;10.00;5.22;;;4.00;93.00;;;;;;5117519;28;20030;-79
2021/03/18 23:14:11;;;;;;;10.77;5.10;;;4.00;93.00;;;;;;5117315;28;20103;-79
2021/03/18 23:19:59;;;;;;;10.52;5.00;;;3.90;93.00;;;;;;5117196;28;20421;-79
2021/03/18 23:25:48;;;;;;;13.13;6.18;;;3.90;93.10;;;;;;5117009;28;20072;-79
2021/03/18 23:31:36;;;;;;;10.93;5.35;;;3.80;93.10;;;;;;5116896;28;22318;-79
2021/03/18 23:37:25;;;;;;;11.57;6.15;;;3.80;93.10;;;;;;5116672;28;20422;-79
2021/03/18 23:43:13;;;;;;;12.57;5.72;;;3.80;93.00;;;;;;5116673;28;20534;-78
2021/03/18 23:49:02;;;;;;;12.60;5.65;;;3.70;93.00;;;;;;5116126;28;20035;-79
2021/03/18 23:54:51;;;;;;;12.65;6.32;;;3.70;93.10;;;;;;5116231;28;20030;-79
